チューリッヒ の空港の天気 - METARとTAF

チューリヒ国際空港 ( LSZH / ZRH ) - スイス チューリッヒ
飛行場実況気象(Metar)
観測時間07/19 05:50 CEST (07/19 03:50 UTC)
風向・風速南南東 2m/s
視程10km以上
天気現象
なし
気温16℃
湿度77%
気圧1017hPa
METARLSZH 190350Z 16003KT CAVOK 16/12 Q1017 NOSIG
過去の天気等 Google飛行場航空写真 Wunderground天気予報

過去48時間のMETAR

飛行場予報(TAF)
発表時間: 7/19 04:25 CEST (7/19 02:25 UTC)
予報対象時間: 19日5時 CEST ~ 20日11時 CEST
風向・風速不定 2m/s
視程10km以上
なし
19日10時 CEST ~ 19日13時 CEST に徐々に
視程10km以上
少しの塔状積雲 雲底高度 1830m
19日13時 CEST ~ 19日19時 CEST に一時的に
風向・風速西北西 5m/s
19日19時 CEST ~ 19日22時 CEST に徐々に
視程10km以上
なし
TAF LSZH 190225Z 1903/2009 VRB03KT CAVOK TX28/1915Z TN15/1904Z TN14/2004Z
BECMG 1908/1911 9999 FEW060TCU
TEMPO 1911/1917 30010KT
BECMG 1917/1920 CAVOK